sensor_id;sensor_type;location;lat;lon;timestamp;P1;durP1;ratioP1;P2;durP2;ratioP2
38083;SDS011;23894;51.466;7.444;2023-01-19T00:00:19;22.55;;;13.20;;
38083;SDS011;23894;51.466;7.444;2023-01-19T00:02:20;21.38;;;13.35;;
38083;SDS011;23894;51.466;7.444;2023-01-19T00:04:21;16.33;;;13.40;;
38083;SDS011;23894;51.466;7.444;2023-01-19T00:06:22;18.02;;;12.75;;
38083;SDS011;23894;51.466;7.444;2023-01-19T00:08:23;18.27;;;13.52;;
38083;SDS011;23894;51.466;7.444;2023-01-19T00:10:24;17.83;;;12.30;;
38083;SDS011;23894;51.466;7.444;2023-01-19T00:12:26;16.90;;;12.52;;
38083;SDS011;23894;51.466;7.444;2023-01-19T00:14:27;14.32;;;12.27;;
38083;SDS011;23894;51.466;7.444;2023-01-19T00:16:28;19.08;;;12.90;;
38083;SDS011;23894;51.466;7.444;2023-01-19T00:20:30;16.33;;;12.23;;
38083;SDS011;23894;51.466;7.444;2023-01-19T00:22:31;19.15;;;13.10;;
38083;SDS011;23894;51.466;7.444;2023-01-19T00:24:32;15.77;;;12.75;;
38083;SDS011;23894;51.466;7.444;2023-01-19T00:26:33;19.83;;;12.60;;
38083;SDS011;23894;51.466;7.444;2023-01-19T00:28:34;18.02;;;12.25;;
38083;SDS011;23894;51.466;7.444;2023-01-19T00:32:36;16.80;;;12.63;;
38083;SDS011;23894;51.466;7.444;2023-01-19T00:34:37;20.02;;;13.90;;
38083;SDS011;23894;51.466;7.444;2023-01-19T00:36:41;17.38;;;11.93;;
38083;SDS011;23894;51.466;7.444;2023-01-19T00:38:42;18.95;;;12.65;;
38083;SDS011;23894;51.466;7.444;2023-01-19T00:40:43;17.42;;;12.70;;
38083;SDS011;23894;51.466;7.444;2023-01-19T00:42:44;20.13;;;13.07;;
38083;SDS011;23894;51.466;7.444;2023-01-19T00:44:47;15.65;;;12.50;;
38083;SDS011;23894;51.466;7.444;2023-01-19T00:46:48;15.23;;;11.68;;
38083;SDS011;23894;51.466;7.444;2023-01-19T00:48:49;17.08;;;12.45;;
38083;SDS011;23894;51.466;7.444;2023-01-19T00:50:50;19.05;;;13.30;;
38083;SDS011;23894;51.466;7.444;2023-01-19T00:52:52;17.23;;;12.35;;
38083;SDS011;23894;51.466;7.444;2023-01-19T00:54:53;17.52;;;12.35;;
38083;SDS011;23894;51.466;7.444;2023-01-19T00:56:54;17.52;;;12.63;;
38083;SDS011;23894;51.466;7.444;2023-01-19T00:58:55;18.63;;;12.25;;
38083;SDS011;23894;51.466;7.444;2023-01-19T01:00:56;15.52;;;12.77;;
38083;SDS011;23894;51.466;7.444;2023-01-19T01:03:02;17.50;;;12.85;;
38083;SDS011;23894;51.466;7.444;2023-01-19T01:05:03;18.35;;;12.93;;
38083;SDS011;23894;51.466;7.444;2023-01-19T01:07:05;18.17;;;13.30;;
38083;SDS011;23894;51.466;7.444;2023-01-19T01:11:10;18.20;;;12.93;;
38083;SDS011;23894;51.466;7.444;2023-01-19T01:13:11;19.30;;;13.05;;
38083;SDS011;23894;51.466;7.444;2023-01-19T01:15:13;16.38;;;12.38;;
38083;SDS011;23894;51.466;7.444;2023-01-19T01:17:14;15.68;;;12.80;;
38083;SDS011;23894;51.466;7.444;2023-01-19T01:19:15;16.58;;;12.02;;
38083;SDS011;23894;51.466;7.444;2023-01-19T01:21:16;18.05;;;12.02;;
38083;SDS011;23894;51.466;7.444;2023-01-19T01:23:17;17.15;;;13.07;;
38083;SDS011;23894;51.466;7.444;2023-01-19T01:25:23;17.98;;;12.27;;
38083;SDS011;23894;51.466;7.444;2023-01-19T01:27:24;20.15;;;13.05;;
38083;SDS011;23894;51.466;7.444;2023-01-19T01:29:25;16.88;;;11.82;;
38083;SDS011;23894;51.466;7.444;2023-01-19T01:31:26;20.15;;;12.82;;
38083;SDS011;23894;51.466;7.444;2023-01-19T01:33:27;17.55;;;12.90;;
38083;SDS011;23894;51.466;7.444;2023-01-19T01:35:28;16.05;;;12.02;;
38083;SDS011;23894;51.466;7.444;2023-01-19T01:37:30;14.70;;;11.77;;
38083;SDS011;23894;51.466;7.444;2023-01-19T01:39:31;16.33;;;12.77;;
38083;SDS011;23894;51.466;7.444;2023-01-19T01:41:32;19.33;;;12.77;;
38083;SDS011;23894;51.466;7.444;2023-01-19T01:43:49;16.05;;;12.55;;
38083;SDS011;23894;51.466;7.444;2023-01-19T01:45:52;18.17;;;12.48;;
38083;SDS011;23894;51.466;7.444;2023-01-19T01:47:54;16.15;;;12.00;;
38083;SDS011;23894;51.466;7.444;2023-01-19T01:50:05;17.55;;;12.48;;
38083;SDS011;23894;51.466;7.444;2023-01-19T01:52:08;19.40;;;12.20;;
38083;SDS011;23894;51.466;7.444;2023-01-19T01:56:14;15.38;;;12.30;;
38083;SDS011;23894;51.466;7.444;2023-01-19T01:58:16;16.45;;;12.55;;
38083;SDS011;23894;51.466;7.444;2023-01-19T02:00:17;17.38;;;12.30;;
38083;SDS011;23894;51.466;7.444;2023-01-19T02:02:20;19.27;;;12.60;;
38083;SDS011;23894;51.466;7.444;2023-01-19T02:04:43;18.73;;;13.05;;
38083;SDS011;23894;51.466;7.444;2023-01-19T02:06:45;19.50;;;13.85;;
38083;SDS011;23894;51.466;7.444;2023-01-19T02:09:06;19.17;;;13.95;;
38083;SDS011;23894;51.466;7.444;2023-01-19T02:11:27;17.63;;;13.05;;
38083;SDS011;23894;51.466;7.444;2023-01-19T02:13:47;18.63;;;13.25;;
38083;SDS011;23894;51.466;7.444;2023-01-19T02:15:49;18.42;;;14.02;;
38083;SDS011;23894;51.466;7.444;2023-01-19T02:17:51;21.30;;;14.68;;
38083;SDS011;23894;51.466;7.444;2023-01-19T02:19:52;20.05;;;14.30;;
38083;SDS011;23894;51.466;7.444;2023-01-19T02:21:58;20.42;;;14.80;;
38083;SDS011;23894;51.466;7.444;2023-01-19T02:24:02;21.05;;;13.52;;
38083;SDS011;23894;51.466;7.444;2023-01-19T02:28:04;17.60;;;12.93;;
38083;SDS011;23894;51.466;7.444;2023-01-19T02:30:06;15.88;;;12.73;;
38083;SDS011;23894;51.466;7.444;2023-01-19T02:32:08;18.05;;;12.45;;
38083;SDS011;23894;51.466;7.444;2023-01-19T02:36:11;15.95;;;12.93;;
38083;SDS011;23894;51.466;7.444;2023-01-19T02:38:13;14.82;;;12.00;;
38083;SDS011;23894;51.466;7.444;2023-01-19T02:40:16;17.15;;;11.93;;
38083;SDS011;23894;51.466;7.444;2023-01-19T02:42:24;18.23;;;13.60;;
38083;SDS011;23894;51.466;7.444;2023-01-19T02:44:26;20.58;;;13.02;;
38083;SDS011;23894;51.466;7.444;2023-01-19T02:46:28;18.35;;;13.02;;
38083;SDS011;23894;51.466;7.444;2023-01-19T02:48:30;16.42;;;12.23;;
38083;SDS011;23894;51.466;7.444;2023-01-19T02:52:32;15.95;;;12.05;;
38083;SDS011;23894;51.466;7.444;2023-01-19T02:54:40;18.20;;;11.75;;
38083;SDS011;23894;51.466;7.444;2023-01-19T02:59:13;17.83;;;11.90;;
38083;SDS011;23894;51.466;7.444;2023-01-19T03:03:29;16.83;;;11.45;;
38083;SDS011;23894;51.466;7.444;2023-01-19T03:07:36;16.27;;;11.55;;
38083;SDS011;23894;51.466;7.444;2023-01-19T03:11:43;17.40;;;11.48;;
38083;SDS011;23894;51.466;7.444;2023-01-19T03:16:03;17.25;;;11.57;;
38083;SDS011;23894;51.466;7.444;2023-01-19T03:18:05;15.25;;;11.25;;
38083;SDS011;23894;51.466;7.444;2023-01-19T03:20:08;15.05;;;10.52;;
38083;SDS011;23894;51.466;7.444;2023-01-19T03:22:14;17.75;;;10.68;;
38083;SDS011;23894;51.466;7.444;2023-01-19T03:24:16;14.43;;;10.73;;
38083;SDS011;23894;51.466;7.444;2023-01-19T03:26:19;19.98;;;10.60;;
38083;SDS011;23894;51.466;7.444;2023-01-19T03:28:22;15.27;;;11.40;;
38083;SDS011;23894;51.466;7.444;2023-01-19T03:30:27;15.45;;;10.77;;
38083;SDS011;23894;51.466;7.444;2023-01-19T03:32:49;15.38;;;9.93;;
38083;SDS011;23894;51.466;7.444;2023-01-19T03:34:51;16.20;;;10.35;;
38083;SDS011;23894;51.466;7.444;2023-01-19T03:36:55;15.05;;;10.18;;
38083;SDS011;23894;51.466;7.444;2023-01-19T03:38:57;17.30;;;10.65;;
38083;SDS011;23894;51.466;7.444;2023-01-19T03:41:01;18.48;;;10.55;;
38083;SDS011;23894;51.466;7.444;2023-01-19T03:43:02;17.90;;;10.93;;
38083;SDS011;23894;51.466;7.444;2023-01-19T03:45:03;14.77;;;10.60;;
38083;SDS011;23894;51.466;7.444;2023-01-19T03:47:05;14.98;;;11.32;;
38083;SDS011;23894;51.466;7.444;2023-01-19T03:49:07;14.93;;;10.90;;
38083;SDS011;23894;51.466;7.444;2023-01-19T03:51:09;17.33;;;10.63;;
38083;SDS011;23894;51.466;7.444;2023-01-19T03:53:12;17.67;;;10.75;;
38083;SDS011;23894;51.466;7.444;2023-01-19T03:55:13;15.75;;;10.43;;
38083;SDS011;23894;51.466;7.444;2023-01-19T03:57:14;13.73;;;9.95;;
38083;SDS011;23894;51.466;7.444;2023-01-19T03:59:16;15.35;;;9.93;;
38083;SDS011;23894;51.466;7.444;2023-01-19T04:01:17;13.70;;;9.55;;
38083;SDS011;23894;51.466;7.444;2023-01-19T04:03:21;15.00;;;10.68;;
38083;SDS011;23894;51.466;7.444;2023-01-19T04:05:22;16.02;;;9.98;;
38083;SDS011;23894;51.466;7.444;2023-01-19T04:07:23;16.67;;;10.63;;
38083;SDS011;23894;51.466;7.444;2023-01-19T04:09:24;15.85;;;10.90;;
38083;SDS011;23894;51.466;7.444;2023-01-19T04:11:26;17.60;;;10.35;;
38083;SDS011;23894;51.466;7.444;2023-01-19T04:15:29;13.80;;;9.48;;
38083;SDS011;23894;51.466;7.444;2023-01-19T04:17:30;13.48;;;9.40;;
38083;SDS011;23894;51.466;7.444;2023-01-19T04:21:32;15.02;;;10.70;;
38083;SDS011;23894;51.466;7.444;2023-01-19T04:23:34;15.93;;;10.50;;
38083;SDS011;23894;51.466;7.444;2023-01-19T04:25:35;16.98;;;11.05;;
38083;SDS011;23894;51.466;7.444;2023-01-19T04:27:36;16.52;;;10.57;;
38083;SDS011;23894;51.466;7.444;2023-01-19T04:29:37;16.77;;;10.38;;
38083;SDS011;23894;51.466;7.444;2023-01-19T04:31:38;15.10;;;10.70;;
38083;SDS011;23894;51.466;7.444;2023-01-19T04:35:40;16.52;;;10.30;;
38083;SDS011;23894;51.466;7.444;2023-01-19T04:37:41;17.15;;;10.65;;
38083;SDS011;23894;51.466;7.444;2023-01-19T04:39:43;14.85;;;10.15;;
38083;SDS011;23894;51.466;7.444;2023-01-19T04:41:44;14.82;;;9.70;;
38083;SDS011;23894;51.466;7.444;2023-01-19T04:43:45;15.90;;;10.38;;
38083;SDS011;23894;51.466;7.444;2023-01-19T04:45:49;12.63;;;10.00;;
38083;SDS011;23894;51.466;7.444;2023-01-19T04:47:50;17.23;;;10.23;;
38083;SDS011;23894;51.466;7.444;2023-01-19T04:49:51;15.50;;;10.15;;
38083;SDS011;23894;51.466;7.444;2023-01-19T04:51:52;15.02;;;10.77;;
38083;SDS011;23894;51.466;7.444;2023-01-19T04:55:56;18.80;;;9.90;;
38083;SDS011;23894;51.466;7.444;2023-01-19T04:57:58;13.73;;;9.63;;
38083;SDS011;23894;51.466;7.444;2023-01-19T04:59:59;13.88;;;10.73;;
38083;SDS011;23894;51.466;7.444;2023-01-19T05:02:00;12.88;;;9.90;;
38083;SDS011;23894;51.466;7.444;2023-01-19T05:04:01;13.25;;;10.25;;
38083;SDS011;23894;51.466;7.444;2023-01-19T05:06:05;18.45;;;10.60;;
38083;SDS011;23894;51.466;7.444;2023-01-19T05:08:06;17.92;;;10.75;;
38083;SDS011;23894;51.466;7.444;2023-01-19T05:10:07;16.35;;;10.38;;
38083;SDS011;23894;51.466;7.444;2023-01-19T05:12:09;15.75;;;9.10;;
38083;SDS011;23894;51.466;7.444;2023-01-19T05:14:10;12.77;;;9.98;;
38083;SDS011;23894;51.466;7.444;2023-01-19T05:16:11;15.00;;;10.43;;
38083;SDS011;23894;51.466;7.444;2023-01-19T05:18:13;17.75;;;10.80;;
38083;SDS011;23894;51.466;7.444;2023-01-19T05:20:14;15.02;;;10.80;;
38083;SDS011;23894;51.466;7.444;2023-01-19T05:22:16;15.90;;;10.85;;
38083;SDS011;23894;51.466;7.444;2023-01-19T05:24:17;15.55;;;11.40;;
38083;SDS011;23894;51.466;7.444;2023-01-19T05:26:19;16.58;;;10.85;;
38083;SDS011;23894;51.466;7.444;2023-01-19T05:28:20;17.80;;;11.73;;
38083;SDS011;23894;51.466;7.444;2023-01-19T05:30:21;17.25;;;11.75;;
38083;SDS011;23894;51.466;7.444;2023-01-19T05:32:22;15.73;;;11.52;;
38083;SDS011;23894;51.466;7.444;2023-01-19T05:34:23;17.23;;;12.13;;
38083;SDS011;23894;51.466;7.444;2023-01-19T05:36:24;17.00;;;10.45;;
38083;SDS011;23894;51.466;7.444;2023-01-19T05:38:27;16.38;;;11.05;;
38083;SDS011;23894;51.466;7.444;2023-01-19T05:40:28;13.90;;;10.38;;
38083;SDS011;23894;51.466;7.444;2023-01-19T05:42:29;13.73;;;9.70;;
38083;SDS011;23894;51.466;7.444;2023-01-19T05:44:30;14.85;;;9.93;;
38083;SDS011;23894;51.466;7.444;2023-01-19T05:46:32;13.98;;;9.93;;
38083;SDS011;23894;51.466;7.444;2023-01-19T05:48:33;10.27;;;8.60;;
38083;SDS011;23894;51.466;7.444;2023-01-19T05:50:34;12.18;;;9.00;;
38083;SDS011;23894;51.466;7.444;2023-01-19T05:52:35;14.15;;;10.00;;
38083;SDS011;23894;51.466;7.444;2023-01-19T05:54:38;13.13;;;8.70;;
38083;SDS011;23894;51.466;7.444;2023-01-19T05:56:39;11.38;;;9.40;;
38083;SDS011;23894;51.466;7.444;2023-01-19T05:58:41;15.23;;;10.52;;
38083;SDS011;23894;51.466;7.444;2023-01-19T06:00:42;13.70;;;9.98;;
38083;SDS011;23894;51.466;7.444;2023-01-19T06:02:43;13.38;;;9.90;;
38083;SDS011;23894;51.466;7.444;2023-01-19T06:04:46;13.23;;;9.13;;
38083;SDS011;23894;51.466;7.444;2023-01-19T06:06:48;16.02;;;9.40;;
38083;SDS011;23894;51.466;7.444;2023-01-19T06:08:49;12.15;;;9.02;;
38083;SDS011;23894;51.466;7.444;2023-01-19T06:10:50;11.90;;;9.23;;
38083;SDS011;23894;51.466;7.444;2023-01-19T06:12:52;14.55;;;9.65;;
38083;SDS011;23894;51.466;7.444;2023-01-19T06:14:53;16.33;;;10.27;;
38083;SDS011;23894;51.466;7.444;2023-01-19T06:16:54;11.52;;;8.70;;
38083;SDS011;23894;51.466;7.444;2023-01-19T06:18:55;16.30;;;9.32;;
38083;SDS011;23894;51.466;7.444;2023-01-19T06:20:56;10.43;;;8.02;;
38083;SDS011;23894;51.466;7.444;2023-01-19T06:22:58;10.25;;;7.90;;
38083;SDS011;23894;51.466;7.444;2023-01-19T06:24:59;10.48;;;7.50;;
38083;SDS011;23894;51.466;7.444;2023-01-19T06:27:00;12.20;;;8.25;;
38083;SDS011;23894;51.466;7.444;2023-01-19T06:29:01;11.65;;;7.75;;
38083;SDS011;23894;51.466;7.444;2023-01-19T06:31:02;9.75;;;7.85;;
38083;SDS011;23894;51.466;7.444;2023-01-19T06:35:05;9.85;;;6.70;;
38083;SDS011;23894;51.466;7.444;2023-01-19T06:37:06;9.95;;;7.00;;
38083;SDS011;23894;51.466;7.444;2023-01-19T06:43:10;9.23;;;5.97;;
38083;SDS011;23894;51.466;7.444;2023-01-19T06:45:11;8.60;;;6.20;;
38083;SDS011;23894;51.466;7.444;2023-01-19T06:47:13;9.80;;;6.57;;
38083;SDS011;23894;51.466;7.444;2023-01-19T06:49:14;8.45;;;6.20;;
38083;SDS011;23894;51.466;7.444;2023-01-19T06:51:15;9.00;;;6.68;;
38083;SDS011;23894;51.466;7.444;2023-01-19T06:53:16;7.15;;;5.28;;
38083;SDS011;23894;51.466;7.444;2023-01-19T06:55:19;8.95;;;5.63;;
38083;SDS011;23894;51.466;7.444;2023-01-19T06:59:22;7.80;;;5.72;;
38083;SDS011;23894;51.466;7.444;2023-01-19T07:01:24;8.07;;;5.32;;
38083;SDS011;23894;51.466;7.444;2023-01-19T07:03:25;9.10;;;5.90;;
38083;SDS011;23894;51.466;7.444;2023-01-19T07:05:28;8.82;;;6.10;;
38083;SDS011;23894;51.466;7.444;2023-01-19T07:07:29;7.80;;;5.40;;
38083;SDS011;23894;51.466;7.444;2023-01-19T07:09:30;8.93;;;5.57;;
38083;SDS011;23894;51.466;7.444;2023-01-19T07:11:31;7.82;;;5.53;;
38083;SDS011;23894;51.466;7.444;2023-01-19T07:13:32;7.90;;;5.57;;
38083;SDS011;23894;51.466;7.444;2023-01-19T07:15:34;8.93;;;5.82;;
38083;SDS011;23894;51.466;7.444;2023-01-19T07:17:36;7.63;;;5.30;;
38083;SDS011;23894;51.466;7.444;2023-01-19T07:19:37;8.38;;;6.38;;
38083;SDS011;23894;51.466;7.444;2023-01-19T07:21:38;11.52;;;5.63;;
38083;SDS011;23894;51.466;7.444;2023-01-19T07:25:45;8.60;;;5.93;;
38083;SDS011;23894;51.466;7.444;2023-01-19T07:27:46;8.65;;;5.25;;
38083;SDS011;23894;51.466;7.444;2023-01-19T07:29:47;9.48;;;5.88;;
38083;SDS011;23894;51.466;7.444;2023-01-19T07:31:48;7.28;;;5.10;;
38083;SDS011;23894;51.466;7.444;2023-01-19T07:33:49;7.85;;;4.82;;
38083;SDS011;23894;51.466;7.444;2023-01-19T07:35:51;6.40;;;4.50;;
38083;SDS011;23894;51.466;7.444;2023-01-19T07:37:52;8.18;;;5.18;;
38083;SDS011;23894;51.466;7.444;2023-01-19T07:39:53;7.70;;;5.28;;
38083;SDS011;23894;51.466;7.444;2023-01-19T07:41:54;10.73;;;6.38;;
38083;SDS011;23894;51.466;7.444;2023-01-19T07:45:56;8.80;;;5.45;;
38083;SDS011;23894;51.466;7.444;2023-01-19T07:47:57;8.40;;;5.20;;
38083;SDS011;23894;51.466;7.444;2023-01-19T07:49:58;8.95;;;6.20;;
38083;SDS011;23894;51.466;7.444;2023-01-19T07:51:59;7.40;;;5.32;;
38083;SDS011;23894;51.466;7.444;2023-01-19T07:54:00;9.20;;;5.60;;
38083;SDS011;23894;51.466;7.444;2023-01-19T07:56:01;9.23;;;6.30;;
38083;SDS011;23894;51.466;7.444;2023-01-19T07:58:06;9.13;;;5.75;;
38083;SDS011;23894;51.466;7.444;2023-01-19T08:00:07;11.50;;;7.28;;
38083;SDS011;23894;51.466;7.444;2023-01-19T08:02:09;12.15;;;8.15;;
38083;SDS011;23894;51.466;7.444;2023-01-19T08:04:10;12.38;;;8.65;;
38083;SDS011;23894;51.466;7.444;2023-01-19T08:06:17;13.38;;;8.52;;
38083;SDS011;23894;51.466;7.444;2023-01-19T08:08:19;11.90;;;8.32;;
38083;SDS011;23894;51.466;7.444;2023-01-19T08:10:20;17.35;;;10.23;;
38083;SDS011;23894;51.466;7.444;2023-01-19T08:12:24;17.48;;;9.93;;
38083;SDS011;23894;51.466;7.444;2023-01-19T08:14:25;18.83;;;11.15;;
38083;SDS011;23894;51.466;7.444;2023-01-19T08:16:26;24.65;;;13.75;;
38083;SDS011;23894;51.466;7.444;2023-01-19T08:18:27;19.58;;;11.20;;
38083;SDS011;23894;51.466;7.444;2023-01-19T08:22:29;21.48;;;12.43;;
38083;SDS011;23894;51.466;7.444;2023-01-19T08:26:32;24.83;;;14.40;;
38083;SDS011;23894;51.466;7.444;2023-01-19T08:28:34;24.42;;;13.43;;
38083;SDS011;23894;51.466;7.444;2023-01-19T08:30:35;24.63;;;13.52;;
38083;SDS011;23894;51.466;7.444;2023-01-19T08:34:37;27.00;;;15.77;;
38083;SDS011;23894;51.466;7.444;2023-01-19T08:36:38;31.58;;;17.90;;
38083;SDS011;23894;51.466;7.444;2023-01-19T08:38:39;27.90;;;16.00;;
38083;SDS011;23894;51.466;7.444;2023-01-19T08:40:44;29.38;;;16.92;;
38083;SDS011;23894;51.466;7.444;2023-01-19T08:42:48;35.85;;;17.00;;
38083;SDS011;23894;51.466;7.444;2023-01-19T08:44:49;34.22;;;17.83;;
38083;SDS011;23894;51.466;7.444;2023-01-19T08:46:53;39.22;;;18.83;;
38083;SDS011;23894;51.466;7.444;2023-01-19T08:48:54;32.85;;;17.00;;
38083;SDS011;23894;51.466;7.444;2023-01-19T08:50:55;29.33;;;16.13;;
38083;SDS011;23894;51.466;7.444;2023-01-19T08:52:58;31.35;;;17.23;;
38083;SDS011;23894;51.466;7.444;2023-01-19T08:54:59;32.45;;;17.95;;
38083;SDS011;23894;51.466;7.444;2023-01-19T08:57:02;28.77;;;16.08;;
38083;SDS011;23894;51.466;7.444;2023-01-19T08:59:05;33.85;;;18.73;;
38083;SDS011;23894;51.466;7.444;2023-01-19T09:01:07;35.75;;;17.70;;
38083;SDS011;23894;51.466;7.444;2023-01-19T09:03:10;29.08;;;17.00;;
38083;SDS011;23894;51.466;7.444;2023-01-19T09:05:13;33.50;;;17.40;;
38083;SDS011;23894;51.466;7.444;2023-01-19T09:09:16;35.55;;;17.52;;
38083;SDS011;23894;51.466;7.444;2023-01-19T09:11:19;30.00;;;16.23;;
38083;SDS011;23894;51.466;7.444;2023-01-19T09:13:21;35.38;;;18.55;;
38083;SDS011;23894;51.466;7.444;2023-01-19T09:15:23;38.67;;;19.60;;
38083;SDS011;23894;51.466;7.444;2023-01-19T09:17:24;40.47;;;20.73;;
38083;SDS011;23894;51.466;7.444;2023-01-19T09:19:25;36.22;;;20.42;;
38083;SDS011;23894;51.466;7.444;2023-01-19T09:21:26;30.95;;;20.08;;
38083;SDS011;23894;51.466;7.444;2023-01-19T09:25:30;39.38;;;22.88;;
38083;SDS011;23894;51.466;7.444;2023-01-19T09:27:33;41.60;;;23.60;;
38083;SDS011;23894;51.466;7.444;2023-01-19T09:29:35;45.67;;;23.65;;
38083;SDS011;23894;51.466;7.444;2023-01-19T09:31:38;42.95;;;24.85;;
38083;SDS011;23894;51.466;7.444;2023-01-19T09:33:40;50.80;;;25.85;;
38083;SDS011;23894;51.466;7.444;2023-01-19T09:35:43;48.03;;;27.05;;
38083;SDS011;23894;51.466;7.444;2023-01-19T09:37:45;57.38;;;29.27;;
38083;SDS011;23894;51.466;7.444;2023-01-19T09:39:48;49.83;;;27.80;;
38083;SDS011;23894;51.466;7.444;2023-01-19T09:41:50;52.28;;;28.73;;
38083;SDS011;23894;51.466;7.444;2023-01-19T09:43:58;45.45;;;27.90;;
38083;SDS011;23894;51.466;7.444;2023-01-19T09:46:01;47.75;;;28.95;;
38083;SDS011;23894;51.466;7.444;2023-01-19T09:48:04;56.72;;;28.50;;
38083;SDS011;23894;51.466;7.444;2023-01-19T09:50:25;52.42;;;29.10;;
38083;SDS011;23894;51.466;7.444;2023-01-19T09:52:38;53.35;;;29.55;;
38083;SDS011;23894;51.466;7.444;2023-01-19T09:55:00;52.92;;;29.15;;
38083;SDS011;23894;51.466;7.444;2023-01-19T09:57:02;60.45;;;30.58;;
38083;SDS011;23894;51.466;7.444;2023-01-19T09:59:23;61.00;;;31.52;;
38083;SDS011;23894;51.466;7.444;2023-01-19T10:01:39;58.10;;;30.38;;
38083;SDS011;23894;51.466;7.444;2023-01-19T10:03:47;57.22;;;31.00;;
38083;SDS011;23894;51.466;7.444;2023-01-19T10:05:54;65.47;;;31.65;;
38083;SDS011;23894;51.466;7.444;2023-01-19T10:10:26;61.92;;;32.63;;
38083;SDS011;23894;51.466;7.444;2023-01-19T10:12:43;64.43;;;33.63;;
38083;SDS011;23894;51.466;7.444;2023-01-19T10:14:52;58.28;;;33.28;;
38083;SDS011;23894;51.466;7.444;2023-01-19T10:17:04;60.83;;;34.25;;
38083;SDS011;23894;51.466;7.444;2023-01-19T10:21:39;51.88;;;29.95;;
38083;SDS011;23894;51.466;7.444;2023-01-19T10:24:00;45.33;;;27.90;;
38083;SDS011;23894;51.466;7.444;2023-01-19T10:26:11;60.38;;;34.22;;
38083;SDS011;23894;51.466;7.444;2023-01-19T10:28:15;60.38;;;32.95;;
38083;SDS011;23894;51.466;7.444;2023-01-19T10:30:24;56.70;;;32.28;;
38083;SDS011;23894;51.466;7.444;2023-01-19T10:32:32;62.80;;;31.38;;
38083;SDS011;23894;51.466;7.444;2023-01-19T10:34:34;58.55;;;34.25;;
38083;SDS011;23894;51.466;7.444;2023-01-19T10:36:37;72.32;;;34.33;;
38083;SDS011;23894;51.466;7.444;2023-01-19T10:38:39;57.08;;;32.40;;
38083;SDS011;23894;51.466;7.444;2023-01-19T10:42:43;56.20;;;28.05;;
38083;SDS011;23894;51.466;7.444;2023-01-19T10:44:44;67.80;;;32.83;;
38083;SDS011;23894;51.466;7.444;2023-01-19T10:46:47;54.10;;;29.35;;
38083;SDS011;23894;51.466;7.444;2023-01-19T10:48:49;59.70;;;33.38;;
38083;SDS011;23894;51.466;7.444;2023-01-19T10:51:01;53.88;;;30.83;;
38083;SDS011;23894;51.466;7.444;2023-01-19T10:55:11;54.15;;;30.23;;
38083;SDS011;23894;51.466;7.444;2023-01-19T10:57:24;74.35;;;33.97;;
38083;SDS011;23894;51.466;7.444;2023-01-19T10:59:34;63.72;;;33.53;;
38083;SDS011;23894;51.466;7.444;2023-01-19T11:01:36;68.07;;;36.85;;
38083;SDS011;23894;51.466;7.444;2023-01-19T11:03:39;78.47;;;36.13;;
38083;SDS011;23894;51.466;7.444;2023-01-19T11:05:40;65.93;;;35.10;;
38083;SDS011;23894;51.466;7.444;2023-01-19T11:07:42;69.43;;;35.42;;
38083;SDS011;23894;51.466;7.444;2023-01-19T11:09:43;64.78;;;36.60;;
38083;SDS011;23894;51.466;7.444;2023-01-19T11:11:46;67.85;;;37.38;;
38083;SDS011;23894;51.466;7.444;2023-01-19T11:14:02;56.95;;;34.97;;
38083;SDS011;23894;51.466;7.444;2023-01-19T11:16:11;94.50;;;38.03;;
38083;SDS011;23894;51.466;7.444;2023-01-19T11:18:23;71.50;;;37.83;;
38083;SDS011;23894;51.466;7.444;2023-01-19T11:20:38;70.60;;;34.97;;
38083;SDS011;23894;51.466;7.444;2023-01-19T11:22:44;77.43;;;38.42;;
38083;SDS011;23894;51.466;7.444;2023-01-19T11:24:47;86.25;;;40.50;;
38083;SDS011;23894;51.466;7.444;2023-01-19T11:26:49;71.40;;;37.60;;
38083;SDS011;23894;51.466;7.444;2023-01-19T11:28:58;81.90;;;40.42;;
38083;SDS011;23894;51.466;7.444;2023-01-19T11:31:01;69.60;;;36.25;;
38083;SDS011;23894;51.466;7.444;2023-01-19T11:33:04;75.57;;;37.28;;
38083;SDS011;23894;51.466;7.444;2023-01-19T11:37:30;71.60;;;37.75;;
38083;SDS011;23894;51.466;7.444;2023-01-19T11:41:54;77.40;;;38.58;;
38083;SDS011;23894;51.466;7.444;2023-01-19T11:43:57;80.95;;;39.33;;
38083;SDS011;23894;51.466;7.444;2023-01-19T11:46:00;96.53;;;42.13;;
38083;SDS011;23894;51.466;7.444;2023-01-19T11:48:03;80.20;;;39.20;;
38083;SDS011;23894;51.466;7.444;2023-01-19T11:54:38;90.07;;;43.55;;
38083;SDS011;23894;51.466;7.444;2023-01-19T11:56:41;92.60;;;42.33;;
38083;SDS011;23894;51.466;7.444;2023-01-19T11:58:43;88.60;;;42.15;;
38083;SDS011;23894;51.466;7.444;2023-01-19T12:00:58;99.03;;;43.60;;
38083;SDS011;23894;51.466;7.444;2023-01-19T12:03:14;82.75;;;42.45;;
38083;SDS011;23894;51.466;7.444;2023-01-19T12:05:20;74.82;;;40.42;;
38083;SDS011;23894;51.466;7.444;2023-01-19T12:07:25;100.40;;;44.50;;
38083;SDS011;23894;51.466;7.444;2023-01-19T12:09:47;93.60;;;44.30;;
38083;SDS011;23894;51.466;7.444;2023-01-19T12:12:06;91.43;;;42.40;;
38083;SDS011;23894;51.466;7.444;2023-01-19T12:16:47;80.32;;;39.22;;
38083;SDS011;23894;51.466;7.444;2023-01-19T12:19:04;92.60;;;43.08;;
38083;SDS011;23894;51.466;7.444;2023-01-19T12:21:09;80.22;;;39.78;;
38083;SDS011;23894;51.466;7.444;2023-01-19T12:25:43;85.65;;;40.90;;
38083;SDS011;23894;51.466;7.444;2023-01-19T12:27:49;81.53;;;40.65;;
38083;SDS011;23894;51.466;7.444;2023-01-19T12:29:52;69.88;;;36.83;;
38083;SDS011;23894;51.466;7.444;2023-01-19T12:36:33;68.68;;;39.13;;
38083;SDS011;23894;51.466;7.444;2023-01-19T12:40:45;62.22;;;34.97;;
38083;SDS011;23894;51.466;7.444;2023-01-19T12:42:50;61.47;;;34.83;;
38083;SDS011;23894;51.466;7.444;2023-01-19T12:47:31;80.90;;;37.83;;
38083;SDS011;23894;51.466;7.444;2023-01-19T12:49:44;69.88;;;36.35;;
38083;SDS011;23894;51.466;7.444;2023-01-19T12:51:47;71.22;;;37.22;;
38083;SDS011;23894;51.466;7.444;2023-01-19T12:53:52;75.43;;;38.30;;
38083;SDS011;23894;51.466;7.444;2023-01-19T12:55:58;74.95;;;38.47;;
38083;SDS011;23894;51.466;7.444;2023-01-19T12:58:19;77.70;;;37.45;;
38083;SDS011;23894;51.466;7.444;2023-01-19T13:04:31;99.43;;;43.92;;
38083;SDS011;23894;51.466;7.444;2023-01-19T13:15:37;80.47;;;37.47;;
38083;SDS011;23894;51.466;7.444;2023-01-19T13:17:51;81.45;;;37.58;;
38083;SDS011;23894;51.466;7.444;2023-01-19T13:19:56;83.88;;;38.45;;
38083;SDS011;23894;51.466;7.444;2023-01-19T13:21:59;82.53;;;39.75;;
38083;SDS011;23894;51.466;7.444;2023-01-19T13:24:21;68.20;;;37.55;;
38083;SDS011;23894;51.466;7.444;2023-01-19T13:26:23;75.40;;;36.00;;
38083;SDS011;23894;51.466;7.444;2023-01-19T13:28:41;81.43;;;38.28;;
38083;SDS011;23894;51.466;7.444;2023-01-19T13:30:54;91.72;;;40.53;;
38083;SDS011;23894;51.466;7.444;2023-01-19T13:33:03;74.20;;;37.60;;
38083;SDS011;23894;51.466;7.444;2023-01-19T13:35:11;74.07;;;37.78;;
38083;SDS011;23894;51.466;7.444;2023-01-19T13:37:17;78.68;;;37.28;;
38083;SDS011;23894;51.466;7.444;2023-01-19T13:39:29;67.85;;;36.03;;
38083;SDS011;23894;51.466;7.444;2023-01-19T13:41:36;77.93;;;38.80;;
38083;SDS011;23894;51.466;7.444;2023-01-19T13:43:38;57.95;;;32.55;;
38083;SDS011;23894;51.466;7.444;2023-01-19T13:45:40;69.43;;;36.45;;
38083;SDS011;23894;51.466;7.444;2023-01-19T13:49:44;68.07;;;34.35;;